Prairie Center, Illinois
Current Conditions -  °F | °C
As of 12:35 AM on Sunday 26 Oct 2014 (Local Time) from KVYS Reporting Station
Clear Clear  
Wind Chill: 39°   Ceiling: Unl
Heat Index: 44°   Visibility: 10mi
Dew Point: 35°   Wind: 9mph
Humidity: 70%   Direction: 310°NW
Pressure: 30.03"   Gusts: NA
Location:  41.4349°N, 88.8687°W
Report Text: KVYS 260535Z AUTO 31008KT 10SM CLR 07/02 A3003 RMK AO2 T00670015
Loading
Personal Weather Stations






























Interactive Weather Map
Tropical Storm Tracking
New forecast layout! Learn more

10-Day Weather Forecast

Advertisements
Track Severe Weather on mobile